Flight Track Log - Related Links

Times and Time Zones

All times are in EDT time to prevent confusion due to time zone crossing. See the SWA2150 flight status page for this flight to view local times or setup timezone preferences in your user account.

Time Position Orientation Groundspeed Altitude Reporting Facility
EDT Latitude Longitude Course Direction KTS MPH feet Rate Location/Type
Sun 10:52:19 PM 33.4333 -112.0833 270° West 198 228 3,200  Level Phoenix TRACON
Sun 10:53:19 PM 33.4500 -112.1667 284° West 243 280 5,600 2,750 Climbing Phoenix TRACON
Sun 10:54:19 PM 33.5167 -112.1500 12° North 286 329 8,700 2,750 Climbing Phoenix TRACON
Sun 10:55:19 PM 33.5333 -112.0500 79° East 322 371 11,100 2,703 Climbing Phoenix TRACON
Sun 10:57:00 PM 33.6972 -111.2272 67° East  Level FlightAware Approximate
Sun 10:57:21 PM 33.5797 -111.8258 76° East 356 410 16,900  Level Albuquerque Center
Sun 10:58:22 PM 33.6047 -111.7000 77° East 387 445 19,400 2,508 Climbing Albuquerque Center
Sun 10:59:23 PM 33.6300 -111.5719 77° East 397 457 22,000 2,262 Climbing Albuquerque Center
Sun 11:00:24 PM 33.6550 -111.4383 77° East 412 474 24,000 2,115 Climbing Albuquerque Center
Sun 11:01:25 PM 33.6811 -111.3011 77° East 422 486 26,300 2,066 Climbing Albuquerque Center
Sun 11:02:26 PM 33.7222 -111.1708 69° East 421 484 28,200 1,721 Climbing Albuquerque Center
Sun 11:03:27 PM 33.7694 -111.0392 67° East 429 494 29,800 1,869 Climbing Albuquerque Center
Sun 11:04:28 PM 33.8272 -110.8772 67° East 440 506 32,000 1,574 Climbing Albuquerque Center
Sun 11:05:29 PM 33.8747 -110.7442 67° East 440 506 33,000 1,140 Climbing Albuquerque Center
Sun 11:06:29 PM 33.9219 -110.6103 67° East 439 505 34,300 1,438 Climbing Albuquerque Center
Sun 11:07:30 PM 33.9678 -110.4794 67° East 435 501 35,900 1,328 Climbing Albuquerque Center
Sun 11:08:31 PM 34.0133 -110.3483 67° East 429 494 37,000 541 Climbing Albuquerque Center
Sun 11:09:32 PM 34.0589 -110.2150 68° East 428 493 37,000  Level Albuquerque Center
Sun 11:10:33 PM 34.1100 -110.0689 67° East 429 494 37,000  Level Albuquerque Center
Sun 11:11:34 PM 34.1528 -109.9422 68° East 428 493 37,000  Level Albuquerque Center
Sun 11:12:35 PM 34.1967 -109.8139 68° East 429 494 37,000  Level Albuquerque Center
Sun 11:13:36 PM 34.2494 -109.6656 67° East 429 494 37,000  Level Albuquerque Center
Sun 11:14:37 PM 34.3053 -109.5456 61° Northeast 429 494 37,000  Level Albuquerque Center
Sun 11:15:38 PM 34.3600 -109.4247 61° Northeast 429 494 37,000  Level Albuquerque Center
Sun 11:16:39 PM 34.4222 -109.2819 62° Northeast 429 494 37,000  Level Albuquerque Center
Sun 11:17:40 PM 34.4756 -109.1631 61° Northeast 429 494 37,000  Level Albuquerque Center
Sun 11:18:41 PM 34.5383 -109.0208 62° Northeast 428 493 37,000  Level Albuquerque Center
Sun 11:19:42 PM 34.5897 -108.8992 63° Northeast 428 493 37,000 295 Level Albuquerque Center
Sun 11:20:43 PM 34.6447 -108.7781 61° Northeast 428 493 37,600 885 Climbing Albuquerque Center
Sun 11:21:44 PM 34.7069 -108.6339 62° Northeast 428 493 38,800 689 Climbing Albuquerque Center
Sun 11:22:45 PM 34.7600 -108.5108 62° Northeast 428 493 39,000 98 Climbing Albuquerque Center
Sun 11:23:46 PM 34.8128 -108.3900 62° Northeast 428 493 39,000  Level Albuquerque Center
Sun 11:24:47 PM 34.8747 -108.2436 63° Northeast 432 497 39,000  Level Albuquerque Center
Sun 11:25:48 PM 34.9231 -108.1342 62° Northeast 431 496 39,000  Level Albuquerque Center
Sun 11:26:48 PM 34.9783 -108.0047 62° Northeast 431 496 39,000  Level Albuquerque Center
Sun 11:27:49 PM 35.0336 -107.8764 62° Northeast 430 495 39,000  Level Albuquerque Center
Sun 11:28:50 PM 35.0875 -107.7475 63° Northeast 430 495 39,000  Level Albuquerque Center
Sun 11:29:51 PM 35.1550 -107.5883 63° Northeast 430 495 39,000  Level Albuquerque Center
Sun 11:30:52 PM 35.2078 -107.4619 63° Northeast 432 497 39,000  Level Albuquerque Center
Sun 11:31:53 PM 35.2614 -107.3353 63° Northeast 437 503 39,000  Level Albuquerque Center
Sun 11:32:54 PM 35.3211 -107.1894 63° Northeast 435 501 39,000  Level Albuquerque Center
Sun 11:33:55 PM 35.3756 -107.0558 63° Northeast 436 502 39,000  Level Albuquerque Center
Sun 11:34:56 PM 35.4306 -106.9217 63° Northeast 437 503 39,000  Level Albuquerque Center
Sun 11:35:57 PM 35.4858 -106.7886 63° Northeast 439 505 39,000  Level Albuquerque Center
Sun 11:36:58 PM 35.5453 -106.6422 63° Northeast 441 507 39,000  Level Albuquerque Center
Sun 11:37:59 PM 35.6011 -106.5067 63° Northeast 446 513 39,000  Level Albuquerque Center
Sun 11:38:59 PM 35.6558 -106.3664 64° Northeast 452 520 39,000  Level Albuquerque Center
Sun 11:40:00 PM 35.7117 -106.2289 63° Northeast 452 520 39,000  Level Albuquerque Center
Sun 11:41:01 PM 35.7683 -106.1044 61° Northeast 452 520 39,000  Level Albuquerque Center
Sun 11:42:02 PM 35.8239 -105.9631 64° Northeast 455 524 39,000  Level Albuquerque Center
Sun 11:43:03 PM 35.8789 -105.8211 64° Northeast 456 525 39,000  Level Albuquerque Center
Sun 11:44:04 PM 35.9358 -105.6747 64° Northeast 457 526 39,000  Level Albuquerque Center
Sun 11:45:05 PM 35.9994 -105.5153 64° Northeast 457 526 39,000  Level Albuquerque Center
Sun 11:46:05 PM 36.0553 -105.3744 64° Northeast 455 524 39,000  Level Albuquerque Center
Sun 11:47:06 PM 36.1192 -105.2364 60° Northeast 454 522 39,000  Level Albuquerque Center
Sun 11:48:07 PM 36.1897 -105.1072 56° Northeast 452 520 39,000  Level Albuquerque Center
Sun 11:49:08 PM 36.2628 -104.9756 55° Northeast 453 521 39,000  Level Albuquerque Center
Sun 11:50:08 PM 36.3364 -104.8444 55° Northeast 453 521 39,000  Level Albuquerque Center
Sun 11:51:09 PM 36.4114 -104.7125 55° Northeast 458 527 39,000  Level Albuquerque Center
Sun 11:52:10 PM 36.4878 -104.5783 55° Northeast 464 534 39,000  Level Albuquerque Center
Sun 11:53:11 PM 36.5625 -104.4422 56° Northeast 468 539 39,000  Level Albuquerque Center
Sun 11:54:11 PM 36.6369 -104.3078 55° Northeast 468 539 39,000  Level Albuquerque Center
Sun 11:55:12 PM 36.7114 -104.1731 55° Northeast 467 537 39,000  Level Albuquerque Center
Sun 11:56:13 PM 36.7669 -104.0297 64° Northeast 461 531 39,000  Level Albuquerque Center
Sun 11:57:14 PM 36.8178 -103.8825 67° East 461 531 39,000  Level Albuquerque Center
Sun 11:58:15 PM 36.8692 -103.7381 66° East 461 531 39,000  Level Albuquerque Center
Sun 11:59:15 PM 36.9208 -103.5919 66° East 461 531 39,000  Level Albuquerque Center
Mon 12:00:16 AM 36.9725 -103.4433 66° East 464 534 39,000  Level Albuquerque Center
Mon 12:01:17 AM 37.0239 -103.2969 66° East 465 535 39,000  Level Albuquerque Center
Mon 12:02:17 AM 37.0753 -103.1497 66° East 465 535 39,000  Level Albuquerque Center
Mon 12:03:18 AM 37.1272 -103.0031 66° East 465 535 39,000  Level Albuquerque Center
Mon 12:04:19 AM 37.1772 -102.8569 67° East 464 534 39,000  Level Albuquerque Center
Mon 12:05:19 AM 37.2283 -102.7103 66° East 462 532 39,000  Level Albuquerque Center
Mon 12:06:20 AM 37.2789 -102.5667 66° East 456 525 39,000  Level Albuquerque Center
Mon 12:07:21 AM 37.3269 -102.4231 67° East 453 521 39,000  Level Albuquerque Center
Mon 12:08:22 AM 37.3850 -102.2492 67° East 452 520 39,000  Level Albuquerque Center
Mon 12:09:22 AM 37.4342 -102.1053 67° East 453 521 39,000  Level Albuquerque Center
Mon 12:10:23 AM 37.4806 -101.9656 67° East 453 521 39,000  Level Albuquerque Center
Mon 12:11:24 AM 37.5269 -101.8261 67° East 452 520 39,000  Level Albuquerque Center
Mon 12:12:24 AM 37.5817 -101.6586 68° East 455 524 39,000  Level Albuquerque Center
Mon 12:13:25 AM 37.6286 -101.5158 67° East 457 526 39,000  Level Albuquerque Center
Mon 12:14:34 AM 37.6844 -101.3481 67° East 460 529 39,000  Level Kansas City Center
Mon 12:15:37 AM 37.7389 -101.1806 68° East 460 529 39,000  Level Kansas City Center
Mon 12:16:34 AM 37.7867 -101.0350 67° East 460 529 39,000  Level Kansas City Center
Mon 12:17:35 AM 37.8350 -100.8878 67° East 461 531 39,000  Level Kansas City Center
Mon 12:18:37 AM 37.8817 -100.7406 68° East 463 533 39,000  Level Kansas City Center
Mon 12:19:35 AM 37.9281 -100.5953 68° East 463 533 39,000  Level Kansas City Center
Mon 12:20:36 AM 37.9803 -100.4281 68° East 461 531 39,000  Level Kansas City Center
Mon 12:21:39 AM 38.0258 -100.2833 68° East 461 531 39,000  Level Kansas City Center
Mon 12:22:37 AM 38.0711 -100.1364 69° East 462 532 39,000  Level Kansas City Center
Mon 12:23:39 AM 38.1169 -99.9911 68° East 462 532 39,000  Level Kansas City Center
Mon 12:24:37 AM 38.1692 -99.8219 69° East 462 532 39,000  Level Kansas City Center
Mon 12:25:38 AM 38.2144 -99.6769 68° East 462 532 39,000  Level Kansas City Center
Mon 12:26:39 AM 38.2586 -99.5319 69° East 462 532 39,000  Level Kansas City Center
Mon 12:27:38 AM 38.3028 -99.3925 68° East 462 532 39,000  Level Kansas City Center
Mon 12:28:38 AM 38.3481 -99.2425 69° East 461 531 39,000  Level Kansas City Center
Mon 12:29:39 AM 38.3944 -99.0917 69° East 460 529 39,000  Level Kansas City Center
Mon 12:30:38 AM 38.4406 -98.9389 69° East 460 529 39,000  Level Kansas City Center
Mon 12:31:40 AM 38.4858 -98.7892 69° East 458 527 39,000  Level Kansas City Center
Mon 12:32:39 AM 38.5317 -98.6394 69° East 455 524 39,000  Level Kansas City Center
Mon 12:33:41 AM 38.5756 -98.4908 69° East 452 520 39,000  Level Kansas City Center
Mon 12:34:39 AM 38.6194 -98.3403 69° East 451 519 39,000  Level Kansas City Center
Mon 12:35:40 AM 38.6636 -98.1903 69° East 451 519 39,000  Level Kansas City Center
Mon 12:36:40 AM 38.7086 -98.0386 69° East 452 520 39,000  Level Kansas City Center
Mon 12:37:41 AM 38.7533 -97.8839 70° East 458 527 39,000  Level Kansas City Center
Mon 12:38:42 AM 38.8058 -97.7056 69° East 461 531 39,000  Level Kansas City Center
Mon 12:39:41 AM 38.8514 -97.5506 69° East 461 531 39,000  Level Kansas City Center
Mon 12:40:42 AM 38.8867 -97.4175 71° East 462 532 39,000  Level Kansas City Center
Mon 12:41:43 AM 38.9314 -97.2608 70° East 460 529 39,000  Level Kansas City Center
Mon 12:42:43 AM 38.9722 -97.1133 70° East 451 519 39,000  Level Kansas City Center
Mon 12:43:41 AM 39.0250 -96.9392 69° East 454 522 39,000  Level Kansas City Center
Mon 12:44:42 AM 39.0669 -96.7844 71° East 454 522 39,000  Level Kansas City Center
Mon 12:45:43 AM 39.1089 -96.6319 70° East 454 522 39,000  Level Kansas City Center
Mon 12:46:42 AM 39.1494 -96.4747 72° East 466 536 39,000  Level Kansas City Center
Mon 12:47:42 AM 39.1917 -96.3208 70° East 450 518 39,000  Level Kansas City Center
Mon 12:48:43 AM 39.2344 -96.1644 71° East 454 522 39,000  Level Kansas City Center
Mon 12:49:44 AM 39.2769 -96.0069 71° East 460 529 39,000  Level Kansas City Center
Mon 12:50:45 AM 39.3197 -95.8517 70° East 451 519 39,000  Level Kansas City Center
Mon 12:51:45 AM 39.3617 -95.6914 71° East 464 534 39,000  Level Kansas City Center
Mon 12:52:45 AM 39.4033 -95.5342 71° East 459 528 39,000  Level Kansas City Center
Mon 12:53:45 AM 39.4464 -95.3697 71° East 468 539 39,000  Level Kansas City Center
Mon 12:54:46 AM 39.4911 -95.2089 70° East 459 528 39,000  Level Kansas City Center
Mon 12:55:44 AM 39.5331 -95.0617 70° East 455 524 39,000  Level Kansas City Center
Mon 12:56:47 AM 39.5714 -94.9058 72° East 454 522 39,000  Level Kansas City Center
Mon 12:57:45 AM 39.6119 -94.7492 71° East 455 524 39,000  Level Kansas City Center
Mon 12:58:46 AM 39.6517 -94.5914 72° East 456 525 39,000  Level Kansas City Center
Mon 12:59:46 AM 39.6906 -94.4344 72° East 456 525 39,000  Level Kansas City Center
Mon 01:00:47 AM 39.7300 -94.2769 72° East 457 526 39,000  Level Kansas City Center
Mon 01:01:47 AM 39.7689 -94.1189 72° East 458 527 39,000  Level Kansas City Center
Mon 01:02:47 AM 39.8106 -93.9656 70° East 458 527 39,000  Level Kansas City Center
Mon 01:03:46 AM 39.8542 -93.8297 67° East 459 528 39,000  Level Kansas City Center
Mon 01:04:46 AM 39.9000 -93.6797 68° East 456 525 39,000  Level Kansas City Center
Mon 01:05:46 AM 39.9472 -93.5306 68° East 453 521 39,000  Level Kansas City Center
Mon 01:06:46 AM 39.9947 -93.3819 67° East 449 517 39,000  Level Kansas City Center
Mon 01:07:48 AM 40.0456 -93.2336 66° East 450 518 39,000  Level Kansas City Center
Mon 01:08:46 AM 40.0961 -93.0492 70° East 450 518 39,000  Level Kansas City Center
Mon 01:09:47 AM 40.1417 -92.9033 68° East 450 518 39,000  Level Kansas City Center
Mon 01:10:47 AM 40.1878 -92.7511 68° East 451 519 39,000  Level Kansas City Center
Mon 01:11:47 AM 40.2342 -92.5958 69° East 453 521 39,000  Level Kansas City Center
Mon 01:12:47 AM 40.2817 -92.4414 68° East 455 524 39,000  Level Kansas City Center
Mon 01:13:47 AM 40.3253 -92.2947 69° East 465 535 39,000  Level Kansas City Center
Mon 01:14:47 AM 40.3717 -92.1392 69° East 467 537 39,000  Level Kansas City Center
Mon 01:15:47 AM 40.4169 -91.9844 69° East 463 533 39,000  Level Kansas City Center
Mon 01:16:48 AM 40.4625 -91.8289 69° East 463 533 39,000  Level Kansas City Center
Mon 01:17:48 AM 40.5078 -91.6725 69° East 463 533 39,000  Level Kansas City Center
Mon 01:18:48 AM 40.5528 -91.5169 69° East 461 531 39,000  Level Kansas City Center
Mon 01:19:50 AM 40.5978 -91.3608 69° East 461 531 39,000  Level Kansas City Center
Mon 01:20:48 AM 40.6481 -91.1831 70° East 460 529 39,000  Level Kansas City Center
Mon 01:21:48 AM 40.6950 -91.0253 69° East 460 529 39,000  Level Kansas City Center
Mon 01:22:51 AM 40.7389 -90.8675 70° East 460 529 39,000  Level Kansas City Center
Mon 01:23:49 AM 40.7833 -90.7106 69° East 459 528 39,000 -610 Level Kansas City Center
Mon 01:24:49 AM 40.8269 -90.5544 70° East 457 526 37,800 -1,835 Descending Kansas City Center
Mon 01:25:50 AM 40.8703 -90.4025 69° East 448 516 35,300 -2,350 Descending Kansas City Center
Mon 01:26:49 AM 40.9125 -90.2469 70° East 447 514 33,100 -2,058 Descending Kansas City Center
Mon 01:28:07 AM 40.9656 -90.0597 69° East 439 505 30,600 -1,913 Descending Chicago Center
Mon 01:29:07 AM 41.0053 -89.9153 70° East 433 498 28,700 -1,950 Descending Chicago Center
Mon 01:30:07 AM 41.0447 -89.7658 71° East 431 496 26,700 -1,900 Descending Chicago Center
Mon 01:31:07 AM 41.0833 -89.6228 70° East 417 480 24,900 -1,850 Descending Chicago Center
Mon 01:32:07 AM 41.1192 -89.4850 71° East 401 461 23,000 -1,800 Descending Chicago Center
Mon 01:33:07 AM 41.1544 -89.3533 70° East 387 445 21,300 -1,750 Descending Chicago Center
Mon 01:34:07 AM 41.1886 -89.2258 70° East 374 430 19,500 -1,700 Descending Chicago Center
Mon 01:35:07 AM 41.2181 -89.1072 72° East 350 403 17,900 -1,650 Descending Chicago Center
Mon 01:36:07 AM 41.2508 -88.9839 70° East 350 403 16,200 -1,686 Descending Chicago Center
Mon 01:37:08 AM 41.2822 -88.8644 71° East 346 398 14,500 -1,736 Descending Chicago Center
Mon 01:38:08 AM 41.3142 -88.7419 71° East 340 391 12,700 -1,600 Descending Chicago Center
Mon 01:39:08 AM 41.3461 -88.6281 69° East 329 379 11,300 -1,300 Descending Chicago Center
Mon 01:40:08 AM 41.3967 -88.5208 58° Northeast 317 365 10,100 -650 Descending Chicago Center
Mon 01:41:08 AM 41.4397 -88.4278 58° Northeast 301 346 10,000 -50 Descending Chicago Center
Mon 01:42:08 AM 41.4839 -88.3333 58° Northeast 299 344 10,000  Level Chicago Center
Mon 01:43:08 AM 41.5283 -88.2386 58° Northeast 300 345 10,000 -500 Level Chicago Center
Mon 01:44:08 AM 41.5722 -88.1442 58° Northeast 302 348 9,000 -1,100 Descending Chicago Center
Mon 01:45:08 AM 41.6156 -88.0492 59° Northeast 301 346 7,800 -1,300 Descending Chicago Center
Mon 01:46:08 AM 41.6575 -87.9614 57° Northeast 286 329 6,400 -1,300 Descending Chicago Center
Mon 01:47:08 AM 41.6953 -87.8783 59° Northeast 284 327 5,200 -1,091 Descending Chicago Center
Mon 01:48:09 AM 41.7344 -87.7922 59° Northeast 272 313 4,200 -595 Descending Chicago Center
Mon 01:49:09 AM 41.7556 -87.7092 71° East 237 273 4,000 -450 Descending Chicago Center
Mon 01:50:09 AM 41.7792 -87.6392 66° East 222 255 3,300 -850 Descending Chicago Center
Mon 01:51:09 AM 41.8275 -87.6542 347° North 197 227 2,300 -900 Descending Chicago Center
Mon 01:52:09 AM 41.8225 -87.7050 262° West 143 165 1,500 -700 Descending Chicago Center
Mon 01:53:09 AM 41.7992 -87.7333 222° Southwest 117 135 900 -400 Descending Chicago Center
Mon 01:54:09 AM 41.7756 -87.7667 226° Southwest 117 135 700 -200 Descending Chicago Center

Login

Don't have an account? Register now (free) for customized features, flight alerts, and more!